Decoded Metar for UBBG (GYANDZHA in RUSSIA) (IATA:N/A) | Meteo·Mobile Aviation Weather
aviador You're here:

UBBG Decoded Metar

GYANDZHA in RUSSIA
Report Time2018-11-18 01:00:00
UTC Time2018-11-18 01:25:01
Flight Rules vfr VFR
Wind270° at 08 kt
W.Decomp.*RWY 30: 6.6 kt HW 4.5 kt LCW
W.Rank270° ranks 8
Current wind is above 270° avg. (6.3)
Visibility9999 m
Phenomena:N/A
Clouds:Few 100 Hf
Expected CloudBase > 2,400 ft AGL from Temp-Dew spread
CeilingNone
Temp08°C (ISA -5)
Dew Point02°C (66% RH)
AAT3.5°C
QNH1024 hPa
Density Alt230 ft
Elevation1,083 ft
Report Wrong Elevation
Raw Report
UBBG 180100Z 27008KT 240V300 9999 FEW100 08/02 Q1024 R30/CLRD//
NOSIG=

Extra information for UBBG:More info

Metar Taf Metar & Taf Last 4 Metars F.Rules Stats Wind Profile Meteogram Temp Stats Airport Information Weather charts Add Link Nearby VenuesMetar ALERT Operation Metar Decoded Social comments